sensor_id;sensor_type;location;lat;lon;timestamp;pressure;altitude;pressure_sealevel;temperature;humidity
78717;BME280;68045;50.042;14.432;2024-01-10T00:00:37;99765.97;;;-5.54;64.76
78717;BME280;68045;50.042;14.432;2024-01-10T00:04:58;99763.28;;;-5.66;64.17
78717;BME280;68045;50.042;14.432;2024-01-10T00:08:59;99757.88;;;-5.76;64.75
78717;BME280;68045;50.042;14.432;2024-01-10T00:13:00;99762.34;;;-5.80;65.14
78717;BME280;68045;50.042;14.432;2024-01-10T00:17:01;99748.97;;;-5.85;64.67
78717;BME280;68045;50.042;14.432;2024-01-10T00:21:02;99749.78;;;-5.84;64.20
78717;BME280;68045;50.042;14.432;2024-01-10T00:25:03;99755.84;;;-5.71;63.50
78717;BME280;68045;50.042;14.432;2024-01-10T00:29:05;99745.75;;;-5.60;63.52
78717;BME280;68045;50.042;14.432;2024-01-10T00:33:05;99748.59;;;-5.64;63.09
78717;BME280;68045;50.042;14.432;2024-01-10T00:37:06;99744.34;;;-5.80;63.00
78717;BME280;68045;50.042;14.432;2024-01-10T00:41:07;99745.84;;;-5.75;62.09
78717;BME280;68045;50.042;14.432;2024-01-10T00:45:08;99738.31;;;-5.78;62.54
78717;BME280;68045;50.042;14.432;2024-01-10T00:49:09;99743.91;;;-5.72;62.53
78717;BME280;68045;50.042;14.432;2024-01-10T00:53:10;99745.72;;;-6.02;62.51
78717;BME280;68045;50.042;14.432;2024-01-10T00:57:11;99744.53;;;-6.11;62.52
78717;BME280;68045;50.042;14.432;2024-01-10T01:01:12;99736.38;;;-5.89;61.99
78717;BME280;68045;50.042;14.432;2024-01-10T01:05:13;99737.94;;;-6.01;61.98
78717;BME280;68045;50.042;14.432;2024-01-10T01:09:14;99737.47;;;-5.93;61.85
78717;BME280;68045;50.042;14.432;2024-01-10T01:13:16;99748.88;;;-5.97;61.33
78717;BME280;68045;50.042;14.432;2024-01-10T01:17:17;99743.59;;;-6.10;62.13
78717;BME280;68045;50.042;14.432;2024-01-10T01:21:18;99752.53;;;-6.01;61.89
78717;BME280;68045;50.042;14.432;2024-01-10T01:25:19;99753.22;;;-6.14;61.73
78717;BME280;68045;50.042;14.432;2024-01-10T01:29:20;99743.97;;;-6.16;62.22
78717;BME280;68045;50.042;14.432;2024-01-10T01:33:21;99748.31;;;-6.32;62.47
78717;BME280;68045;50.042;14.432;2024-01-10T01:37:22;99751.03;;;-6.20;62.69
78717;BME280;68045;50.042;14.432;2024-01-10T01:41:22;99749.88;;;-6.30;62.85
78717;BME280;68045;50.042;14.432;2024-01-10T01:45:23;99746.03;;;-6.23;62.94
78717;BME280;68045;50.042;14.432;2024-01-10T01:49:25;99745.69;;;-6.17;62.94
78717;BME280;68045;50.042;14.432;2024-01-10T01:53:27;99750.00;;;-6.17;63.33
78717;BME280;68045;50.042;14.432;2024-01-10T01:57:29;99739.19;;;-6.08;62.65
78717;BME280;68045;50.042;14.432;2024-01-10T02:01:31;99739.09;;;-6.06;62.62
78717;BME280;68045;50.042;14.432;2024-01-10T02:05:32;99737.19;;;-6.03;62.25
78717;BME280;68045;50.042;14.432;2024-01-10T02:09:33;99736.25;;;-6.16;62.78
78717;BME280;68045;50.042;14.432;2024-01-10T02:13:35;99739.16;;;-6.22;63.28
78717;BME280;68045;50.042;14.432;2024-01-10T02:17:36;99733.88;;;-6.19;63.64
78717;BME280;68045;50.042;14.432;2024-01-10T02:21:37;99735.22;;;-6.14;63.67
78717;BME280;68045;50.042;14.432;2024-01-10T02:25:39;99735.59;;;-6.20;64.08
78717;BME280;68045;50.042;14.432;2024-01-10T02:29:40;99733.69;;;-6.16;63.80
78717;BME280;68045;50.042;14.432;2024-01-10T02:33:42;99730.88;;;-5.97;63.27
78717;BME280;68045;50.042;14.432;2024-01-10T02:37:43;99740.38;;;-6.14;62.96
78717;BME280;68045;50.042;14.432;2024-01-10T02:41:44;99738.19;;;-6.20;62.91
78717;BME280;68045;50.042;14.432;2024-01-10T02:45:44;99728.06;;;-6.23;63.06
78717;BME280;68045;50.042;14.432;2024-01-10T02:49:45;99729.63;;;-6.20;62.98
78717;BME280;68045;50.042;14.432;2024-01-10T02:53:46;99722.19;;;-6.25;62.40
78717;BME280;68045;50.042;14.432;2024-01-10T02:57:47;99722.72;;;-6.34;62.77
78717;BME280;68045;50.042;14.432;2024-01-10T03:01:47;99721.28;;;-6.54;63.10
78717;BME280;68045;50.042;14.432;2024-01-10T03:05:48;99719.75;;;-6.42;62.66
78717;BME280;68045;50.042;14.432;2024-01-10T03:09:49;99711.59;;;-6.34;62.99
78717;BME280;68045;50.042;14.432;2024-01-10T03:13:51;99708.97;;;-6.33;62.86
78717;BME280;68045;50.042;14.432;2024-01-10T03:17:52;99707.66;;;-6.40;62.55
78717;BME280;68045;50.042;14.432;2024-01-10T03:21:53;99701.38;;;-6.50;62.96
78717;BME280;68045;50.042;14.432;2024-01-10T03:25:56;99699.81;;;-6.53;63.48
78717;BME280;68045;50.042;14.432;2024-01-10T03:29:56;99696.53;;;-6.71;63.86
78717;BME280;68045;50.042;14.432;2024-01-10T03:33:58;99706.56;;;-6.66;64.14
78717;BME280;68045;50.042;14.432;2024-01-10T03:37:59;99687.84;;;-6.84;64.34
78717;BME280;68045;50.042;14.432;2024-01-10T03:41:59;99702.91;;;-6.62;63.72
78717;BME280;68045;50.042;14.432;2024-01-10T03:46:00;99690.75;;;-6.74;64.01
78717;BME280;68045;50.042;14.432;2024-01-10T03:50:01;99696.41;;;-6.83;64.02
78717;BME280;68045;50.042;14.432;2024-01-10T03:54:02;99690.59;;;-6.87;63.93
78717;BME280;68045;50.042;14.432;2024-01-10T03:58:03;99681.41;;;-6.75;63.63
78717;BME280;68045;50.042;14.432;2024-01-10T04:02:04;99687.66;;;-6.65;63.41
78717;BME280;68045;50.042;14.432;2024-01-10T04:06:06;99686.28;;;-6.86;64.15
78717;BME280;68045;50.042;14.432;2024-01-10T04:10:07;99679.75;;;-6.92;64.46
78717;BME280;68045;50.042;14.432;2024-01-10T04:14:11;99694.59;;;-6.97;64.48
78717;BME280;68045;50.042;14.432;2024-01-10T04:18:12;99684.16;;;-7.10;64.74
78717;BME280;68045;50.042;14.432;2024-01-10T04:22:13;99674.56;;;-6.90;64.40
78717;BME280;68045;50.042;14.432;2024-01-10T04:26:14;99670.56;;;-7.12;64.01
78717;BME280;68045;50.042;14.432;2024-01-10T04:30:15;99674.47;;;-6.89;64.33
78717;BME280;68045;50.042;14.432;2024-01-10T04:34:15;99672.63;;;-6.87;63.71
78717;BME280;68045;50.042;14.432;2024-01-10T04:38:17;99681.91;;;-7.00;63.98
78717;BME280;68045;50.042;14.432;2024-01-10T04:42:17;99678.44;;;-6.99;63.65
78717;BME280;68045;50.042;14.432;2024-01-10T04:46:19;99681.25;;;-7.20;64.92
78717;BME280;68045;50.042;14.432;2024-01-10T04:50:19;99686.16;;;-7.31;64.53
78717;BME280;68045;50.042;14.432;2024-01-10T04:54:20;99679.69;;;-7.22;64.66
78717;BME280;68045;50.042;14.432;2024-01-10T04:58:21;99686.06;;;-7.29;64.75
78717;BME280;68045;50.042;14.432;2024-01-10T05:02:22;99686.06;;;-7.29;65.00
78717;BME280;68045;50.042;14.432;2024-01-10T05:06:23;99681.34;;;-7.21;64.98
78717;BME280;68045;50.042;14.432;2024-01-10T05:10:24;99685.66;;;-7.22;63.92
78717;BME280;68045;50.042;14.432;2024-01-10T05:14:25;99686.56;;;-7.23;64.35
78717;BME280;68045;50.042;14.432;2024-01-10T05:18:26;99687.28;;;-7.21;64.40
78717;BME280;68045;50.042;14.432;2024-01-10T05:22:27;99692.75;;;-7.27;64.44
78717;BME280;68045;50.042;14.432;2024-01-10T05:26:27;99691.94;;;-7.27;65.09
78717;BME280;68045;50.042;14.432;2024-01-10T05:30:29;99679.78;;;-7.24;64.53
78717;BME280;68045;50.042;14.432;2024-01-10T05:34:30;99676.88;;;-7.17;64.33
78717;BME280;68045;50.042;14.432;2024-01-10T05:38:31;99678.97;;;-7.24;64.64
78717;BME280;68045;50.042;14.432;2024-01-10T05:42:32;99675.97;;;-7.16;64.85
78717;BME280;68045;50.042;14.432;2024-01-10T05:46:33;99678.38;;;-7.13;63.91
78717;BME280;68045;50.042;14.432;2024-01-10T05:50:34;99670.50;;;-7.10;64.14
78717;BME280;68045;50.042;14.432;2024-01-10T05:54:35;99669.94;;;-7.15;64.33
78717;BME280;68045;50.042;14.432;2024-01-10T05:58:35;99678.03;;;-7.23;64.41
78717;BME280;68045;50.042;14.432;2024-01-10T06:02:37;99666.13;;;-7.24;64.20
78717;BME280;68045;50.042;14.432;2024-01-10T06:06:40;99676.41;;;-7.24;63.93
78717;BME280;68045;50.042;14.432;2024-01-10T06:10:41;99672.59;;;-7.17;64.30
78717;BME280;68045;50.042;14.432;2024-01-10T06:14:42;99672.81;;;-7.37;64.48
78717;BME280;68045;50.042;14.432;2024-01-10T06:18:43;99668.28;;;-7.16;63.44
78717;BME280;68045;50.042;14.432;2024-01-10T06:22:44;99677.94;;;-7.37;64.25
78717;BME280;68045;50.042;14.432;2024-01-10T06:26:47;99668.19;;;-7.31;64.43
78717;BME280;68045;50.042;14.432;2024-01-10T06:30:48;99671.25;;;-7.24;63.83
78717;BME280;68045;50.042;14.432;2024-01-10T06:34:48;99670.03;;;-7.33;63.87
78717;BME280;68045;50.042;14.432;2024-01-10T06:38:49;99668.69;;;-7.08;63.22
78717;BME280;68045;50.042;14.432;2024-01-10T06:42:52;99662.97;;;-7.13;63.39
78717;BME280;68045;50.042;14.432;2024-01-10T06:46:53;99664.63;;;-7.12;63.66
78717;BME280;68045;50.042;14.432;2024-01-10T06:50:54;99667.88;;;-7.09;62.83
78717;BME280;68045;50.042;14.432;2024-01-10T06:54:55;99669.50;;;-6.92;62.43
78717;BME280;68045;50.042;14.432;2024-01-10T06:58:56;99676.94;;;-6.87;62.52
78717;BME280;68045;50.042;14.432;2024-01-10T07:02:57;99665.38;;;-7.10;62.51
78717;BME280;68045;50.042;14.432;2024-01-10T07:07:02;99674.03;;;-6.81;61.85
78717;BME280;68045;50.042;14.432;2024-01-10T07:11:04;99681.00;;;-6.83;61.44
78717;BME280;68045;50.042;14.432;2024-01-10T07:15:05;99675.72;;;-6.96;61.72
78717;BME280;68045;50.042;14.432;2024-01-10T07:19:06;99682.81;;;-6.85;61.41
78717;BME280;68045;50.042;14.432;2024-01-10T07:23:07;99684.09;;;-6.32;60.70
78717;BME280;68045;50.042;14.432;2024-01-10T07:27:08;99696.31;;;-6.22;60.04
78717;BME280;68045;50.042;14.432;2024-01-10T07:31:11;99704.13;;;-6.23;59.51
78717;BME280;68045;50.042;14.432;2024-01-10T07:35:12;99702.41;;;-6.09;59.21
78717;BME280;68045;50.042;14.432;2024-01-10T07:39:17;99705.91;;;-5.95;58.77
78717;BME280;68045;50.042;14.432;2024-01-10T07:43:19;99708.94;;;-5.74;58.63
78717;BME280;68045;50.042;14.432;2024-01-10T07:47:19;99715.09;;;-5.48;57.91
78717;BME280;68045;50.042;14.432;2024-01-10T07:51:20;99717.22;;;-5.41;57.34
78717;BME280;68045;50.042;14.432;2024-01-10T07:55:21;99717.16;;;-5.12;56.49
78717;BME280;68045;50.042;14.432;2024-01-10T07:59:22;99730.38;;;-5.04;56.17
78717;BME280;68045;50.042;14.432;2024-01-10T08:03:22;99727.03;;;-4.78;55.83
78717;BME280;68045;50.042;14.432;2024-01-10T08:07:23;99727.41;;;-4.57;55.34
78717;BME280;68045;50.042;14.432;2024-01-10T08:11:24;99723.06;;;-4.29;54.22
78717;BME280;68045;50.042;14.432;2024-01-10T08:15:25;99733.13;;;-3.99;52.97
78717;BME280;68045;50.042;14.432;2024-01-10T08:19:27;99720.97;;;-3.72;52.29
78717;BME280;68045;50.042;14.432;2024-01-10T08:23:27;99722.91;;;-3.63;52.04
78717;BME280;68045;50.042;14.432;2024-01-10T08:27:29;99721.44;;;-3.28;51.75
78717;BME280;68045;50.042;14.432;2024-01-10T08:31:30;99712.94;;;-3.18;50.93
78717;BME280;68045;50.042;14.432;2024-01-10T08:35:31;99724.50;;;-2.74;49.90
78717;BME280;68045;50.042;14.432;2024-01-10T08:39:32;99730.09;;;-2.32;48.83
78717;BME280;68045;50.042;14.432;2024-01-10T08:43:34;99727.53;;;-2.21;48.54
78717;BME280;68045;50.042;14.432;2024-01-10T08:47:35;99733.03;;;-1.90;47.92
78717;BME280;68045;50.042;14.432;2024-01-10T08:51:37;99732.00;;;-1.77;46.96
78717;BME280;68045;50.042;14.432;2024-01-10T08:55:38;99732.06;;;-2.01;47.76
78717;BME280;68045;50.042;14.432;2024-01-10T08:59:41;99729.81;;;-1.48;46.63
78717;BME280;68045;50.042;14.432;2024-01-10T09:03:43;99735.94;;;-1.38;46.25
78717;BME280;68045;50.042;14.432;2024-01-10T09:07:44;99723.66;;;-0.91;45.14
78717;BME280;68045;50.042;14.432;2024-01-10T09:11:44;99731.50;;;-0.38;43.54
78717;BME280;68045;50.042;14.432;2024-01-10T09:15:45;99727.97;;;-0.69;44.40
78717;BME280;68045;50.042;14.432;2024-01-10T09:19:46;99729.88;;;0.14;42.92
78717;BME280;68045;50.042;14.432;2024-01-10T09:23:48;99735.97;;;0.34;41.58
78717;BME280;68045;50.042;14.432;2024-01-10T09:27:51;99720.72;;;0.20;42.07
78717;BME280;68045;50.042;14.432;2024-01-10T09:31:53;99726.41;;;0.96;40.83
78717;BME280;68045;50.042;14.432;2024-01-10T09:35:53;99728.44;;;1.71;38.83
78717;BME280;68045;50.042;14.432;2024-01-10T09:39:54;99715.13;;;2.13;38.43
78717;BME280;68045;50.042;14.432;2024-01-10T09:43:55;99717.16;;;3.92;36.20
78717;BME280;68045;50.042;14.432;2024-01-10T09:47:57;99714.03;;;5.51;32.81
78717;BME280;68045;50.042;14.432;2024-01-10T09:51:58;99698.50;;;5.82;31.56
78717;BME280;68045;50.042;14.432;2024-01-10T09:56:00;99703.44;;;7.12;29.84
78717;BME280;68045;50.042;14.432;2024-01-10T10:00:04;99701.13;;;8.09;28.10
78717;BME280;68045;50.042;14.432;2024-01-10T10:04:09;99705.19;;;8.79;27.34
78717;BME280;68045;50.042;14.432;2024-01-10T10:08:13;99695.94;;;9.34;25.28
78717;BME280;68045;50.042;14.432;2024-01-10T10:12:16;99693.25;;;9.70;25.12
78717;BME280;68045;50.042;14.432;2024-01-10T10:16:23;99695.75;;;9.78;24.33
78717;BME280;68045;50.042;14.432;2024-01-10T10:20:28;99697.91;;;10.17;24.37
78717;BME280;68045;50.042;14.432;2024-01-10T10:24:40;99702.25;;;10.53;23.09
78717;BME280;68045;50.042;14.432;2024-01-10T10:28:41;99692.63;;;10.80;23.08
78717;BME280;68045;50.042;14.432;2024-01-10T10:32:42;99694.03;;;10.76;23.18
78717;BME280;68045;50.042;14.432;2024-01-10T10:36:43;99695.94;;;11.70;22.40
78717;BME280;68045;50.042;14.432;2024-01-10T10:40:44;99693.16;;;11.98;22.28
78717;BME280;68045;50.042;14.432;2024-01-10T10:44:47;99699.00;;;12.46;21.36
78717;BME280;68045;50.042;14.432;2024-01-10T10:48:49;99685.13;;;13.22;20.54
78717;BME280;68045;50.042;14.432;2024-01-10T10:52:51;99691.19;;;13.36;20.46
78717;BME280;68045;50.042;14.432;2024-01-10T10:56:53;99681.69;;;13.15;20.77
78717;BME280;68045;50.042;14.432;2024-01-10T11:00:55;99685.34;;;13.21;20.70
78717;BME280;68045;50.042;14.432;2024-01-10T11:04:59;99681.25;;;13.88;20.11
78717;BME280;68045;50.042;14.432;2024-01-10T11:09:06;99669.38;;;14.15;20.08
78717;BME280;68045;50.042;14.432;2024-01-10T11:13:48;99675.72;;;14.14;20.25
78717;BME280;68045;50.042;14.432;2024-01-10T11:18:09;99659.88;;;14.88;19.31
78717;BME280;68045;50.042;14.432;2024-01-10T11:26:47;99669.47;;;15.90;17.66
78717;BME280;68045;50.042;14.432;2024-01-10T11:30:50;99654.63;;;15.41;18.60
78717;BME280;68045;50.042;14.432;2024-01-10T11:34:54;99648.88;;;15.44;18.87
78717;BME280;68045;50.042;14.432;2024-01-10T11:39:00;99657.47;;;14.24;19.76
78717;BME280;68045;50.042;14.432;2024-01-10T11:43:02;99643.84;;;13.39;20.88
78717;BME280;68045;50.042;14.432;2024-01-10T11:47:03;99654.63;;;13.00;21.58
78717;BME280;68045;50.042;14.432;2024-01-10T11:51:05;99649.94;;;12.50;22.06
78717;BME280;68045;50.042;14.432;2024-01-10T11:55:06;99652.53;;;12.63;21.67
78717;BME280;68045;50.042;14.432;2024-01-10T11:59:10;99645.81;;;12.61;21.84
78717;BME280;68045;50.042;14.432;2024-01-10T12:03:12;99653.66;;;11.57;23.43
78717;BME280;68045;50.042;14.432;2024-01-10T12:07:14;99653.66;;;11.57;23.70
78717;BME280;68045;50.042;14.432;2024-01-10T12:11:15;99651.56;;;11.32;24.52
78717;BME280;68045;50.042;14.432;2024-01-10T12:15:16;99652.00;;;10.81;24.55
78717;BME280;68045;50.042;14.432;2024-01-10T12:19:17;99642.31;;;10.47;25.50
78717;BME280;68045;50.042;14.432;2024-01-10T12:23:18;99638.59;;;11.57;24.49
78717;BME280;68045;50.042;14.432;2024-01-10T12:27:19;99640.63;;;11.68;24.22
78717;BME280;68045;50.042;14.432;2024-01-10T12:31:22;99635.94;;;12.17;23.67
78717;BME280;68045;50.042;14.432;2024-01-10T12:35:23;99633.66;;;11.41;24.55
78717;BME280;68045;50.042;14.432;2024-01-10T12:39:24;99623.53;;;11.44;23.37
78717;BME280;68045;50.042;14.432;2024-01-10T12:43:26;99618.09;;;10.91;24.86
78717;BME280;68045;50.042;14.432;2024-01-10T12:47:27;99618.94;;;10.98;25.31
78717;BME280;68045;50.042;14.432;2024-01-10T12:51:29;99615.16;;;11.21;24.83
78717;BME280;68045;50.042;14.432;2024-01-10T12:55:30;99610.00;;;11.06;24.76
78717;BME280;68045;50.042;14.432;2024-01-10T12:59:31;99607.16;;;10.94;25.39
78717;BME280;68045;50.042;14.432;2024-01-10T13:03:32;99605.69;;;10.31;26.14
78717;BME280;68045;50.042;14.432;2024-01-10T13:07:33;99606.41;;;10.59;26.11
78717;BME280;68045;50.042;14.432;2024-01-10T13:11:35;99607.22;;;9.90;26.51
78717;BME280;68045;50.042;14.432;2024-01-10T13:15:36;99604.41;;;10.27;26.38
78717;BME280;68045;50.042;14.432;2024-01-10T13:19:37;99600.59;;;10.01;26.05
78717;BME280;68045;50.042;14.432;2024-01-10T13:23:37;99596.28;;;11.57;24.59
78717;BME280;68045;50.042;14.432;2024-01-10T13:27:38;99601.94;;;11.34;24.65
78717;BME280;68045;50.042;14.432;2024-01-10T13:31:39;99597.66;;;13.15;22.95
78717;BME280;68045;50.042;14.432;2024-01-10T13:35:40;99597.78;;;13.59;22.46
78717;BME280;68045;50.042;14.432;2024-01-10T13:39:41;99594.94;;;13.29;22.65
78717;BME280;68045;50.042;14.432;2024-01-10T13:43:42;99593.97;;;13.98;21.83
78717;BME280;68045;50.042;14.432;2024-01-10T13:47:43;99602.00;;;13.91;22.31
78717;BME280;68045;50.042;14.432;2024-01-10T13:51:44;99599.88;;;13.25;22.81
78717;BME280;68045;50.042;14.432;2024-01-10T13:55:45;99603.19;;;11.45;24.44
78717;BME280;68045;50.042;14.432;2024-01-10T13:59:47;99610.59;;;10.40;26.10
78717;BME280;68045;50.042;14.432;2024-01-10T14:03:48;99601.06;;;9.83;27.63
78717;BME280;68045;50.042;14.432;2024-01-10T14:07:49;99601.44;;;8.73;29.31
78717;BME280;68045;50.042;14.432;2024-01-10T14:11:50;99599.88;;;7.38;32.14
78717;BME280;68045;50.042;14.432;2024-01-10T14:15:51;99590.44;;;7.29;32.53
78717;BME280;68045;50.042;14.432;2024-01-10T14:19:52;99590.31;;;6.68;33.62
78717;BME280;68045;50.042;14.432;2024-01-10T14:23:53;99589.00;;;6.33;34.73
78717;BME280;68045;50.042;14.432;2024-01-10T14:27:53;99591.41;;;6.51;33.83
78717;BME280;68045;50.042;14.432;2024-01-10T14:31:54;99590.41;;;6.04;35.51
78717;BME280;68045;50.042;14.432;2024-01-10T14:35:55;99592.25;;;5.79;36.34
78717;BME280;68045;50.042;14.432;2024-01-10T14:39:56;99590.47;;;5.31;37.30
78717;BME280;68045;50.042;14.432;2024-01-10T14:43:58;99600.94;;;4.56;38.61
78717;BME280;68045;50.042;14.432;2024-01-10T14:47:58;99599.94;;;4.57;39.03
78717;BME280;68045;50.042;14.432;2024-01-10T14:51:59;99605.91;;;4.33;39.65
78717;BME280;68045;50.042;14.432;2024-01-10T14:56:00;99597.31;;;3.01;42.22
78717;BME280;68045;50.042;14.432;2024-01-10T15:00:02;99602.59;;;3.10;42.64
78717;BME280;68045;50.042;14.432;2024-01-10T15:04:03;99606.53;;;2.78;43.92
78717;BME280;68045;50.042;14.432;2024-01-10T15:08:04;99598.81;;;2.31;45.33
78717;BME280;68045;50.042;14.432;2024-01-10T15:12:10;99599.34;;;2.35;45.06
78717;BME280;68045;50.042;14.432;2024-01-10T15:16:11;99596.06;;;2.05;46.49
78717;BME280;68045;50.042;14.432;2024-01-10T15:20:12;99602.94;;;1.87;46.94
78717;BME280;68045;50.042;14.432;2024-01-10T15:24:13;99594.75;;;1.72;47.34
78717;BME280;68045;50.042;14.432;2024-01-10T15:28:14;99601.94;;;1.41;48.20
78717;BME280;68045;50.042;14.432;2024-01-10T15:32:15;99601.41;;;1.28;49.28
78717;BME280;68045;50.042;14.432;2024-01-10T15:36:17;99601.66;;;0.96;50.20
78717;BME280;68045;50.042;14.432;2024-01-10T15:40:18;99596.84;;;0.91;50.39
78717;BME280;68045;50.042;14.432;2024-01-10T15:44:18;99597.94;;;0.89;51.11
78717;BME280;68045;50.042;14.432;2024-01-10T15:48:20;99597.94;;;0.89;50.73
78717;BME280;68045;50.042;14.432;2024-01-10T15:52:21;99605.75;;;0.79;51.49
78717;BME280;68045;50.042;14.432;2024-01-10T15:56:26;99603.78;;;0.62;52.06
78717;BME280;68045;50.042;14.432;2024-01-10T16:00:27;99594.47;;;0.49;52.79
78717;BME280;68045;50.042;14.432;2024-01-10T16:04:28;99600.03;;;0.45;52.98
78717;BME280;68045;50.042;14.432;2024-01-10T16:08:29;99605.38;;;0.43;53.44
78717;BME280;68045;50.042;14.432;2024-01-10T16:12:31;99600.94;;;0.24;53.97
78717;BME280;68045;50.042;14.432;2024-01-10T16:16:31;99597.81;;;0.31;54.46
78717;BME280;68045;50.042;14.432;2024-01-10T16:20:33;99610.78;;;0.31;54.38
78717;BME280;68045;50.042;14.432;2024-01-10T16:24:34;99612.06;;;0.36;54.21
78717;BME280;68045;50.042;14.432;2024-01-10T16:28:37;99609.25;;;0.18;54.56
78717;BME280;68045;50.042;14.432;2024-01-10T16:32:38;99618.06;;;0.37;53.93
78717;BME280;68045;50.042;14.432;2024-01-10T16:36:38;99610.13;;;0.29;54.12
78717;BME280;68045;50.042;14.432;2024-01-10T16:40:39;99605.53;;;0.21;54.68
78717;BME280;68045;50.042;14.432;2024-01-10T16:44:40;99606.41;;;0.21;54.52
78717;BME280;68045;50.042;14.432;2024-01-10T16:48:42;99614.69;;;0.15;54.34
78717;BME280;68045;50.042;14.432;2024-01-10T16:52:43;99611.50;;;0.02;54.72
78717;BME280;68045;50.042;14.432;2024-01-10T16:56:44;99613.69;;;0.07;54.69
78717;BME280;68045;50.042;14.432;2024-01-10T17:00:44;99608.38;;;0.08;55.09
78717;BME280;68045;50.042;14.432;2024-01-10T17:04:45;99610.72;;;0.11;54.63
78717;BME280;68045;50.042;14.432;2024-01-10T17:08:46;99608.28;;;0.19;54.34
78717;BME280;68045;50.042;14.432;2024-01-10T17:12:48;99611.09;;;0.07;54.70
78717;BME280;68045;50.042;14.432;2024-01-10T17:16:49;99598.06;;;-0.03;54.97
78717;BME280;68045;50.042;14.432;2024-01-10T17:20:50;99599.69;;;-0.12;55.51
78717;BME280;68045;50.042;14.432;2024-01-10T17:24:51;99601.34;;;-0.01;55.48
78717;BME280;68045;50.042;14.432;2024-01-10T17:28:51;99610.50;;;-0.07;55.75
78717;BME280;68045;50.042;14.432;2024-01-10T17:32:52;99604.03;;;-0.12;55.57
78717;BME280;68045;50.042;14.432;2024-01-10T17:36:53;99602.09;;;-0.20;55.79
78717;BME280;68045;50.042;14.432;2024-01-10T17:40:54;99597.88;;;-0.21;55.68
78717;BME280;68045;50.042;14.432;2024-01-10T17:44:55;99603.16;;;-0.22;55.83
78717;BME280;68045;50.042;14.432;2024-01-10T17:48:56;99601.28;;;-0.20;55.17
78717;BME280;68045;50.042;14.432;2024-01-10T17:52:57;99603.16;;;-0.22;55.19
78717;BME280;68045;50.042;14.432;2024-01-10T17:56:58;99601.50;;;-0.23;55.42
78717;BME280;68045;50.042;14.432;2024-01-10T18:00:59;99606.19;;;-0.17;54.57
78717;BME280;68045;50.042;14.432;2024-01-10T18:05:00;99600.78;;;-0.35;55.03
78717;BME280;68045;50.042;14.432;2024-01-10T18:09:02;99599.81;;;-0.13;54.57
78717;BME280;68045;50.042;14.432;2024-01-10T18:13:03;99603.56;;;-0.27;54.78
78717;BME280;68045;50.042;14.432;2024-01-10T18:17:05;99597.91;;;-0.32;54.79
78717;BME280;68045;50.042;14.432;2024-01-10T18:21:06;99602.41;;;-0.34;55.04
78717;BME280;68045;50.042;14.432;2024-01-10T18:25:07;99607.22;;;-0.30;54.50
78717;BME280;68045;50.042;14.432;2024-01-10T18:29:08;99605.31;;;-0.28;55.05
78717;BME280;68045;50.042;14.432;2024-01-10T18:33:10;99607.78;;;-0.26;55.31
78717;BME280;68045;50.042;14.432;2024-01-10T18:37:11;99604.63;;;-0.30;55.63
78717;BME280;68045;50.042;14.432;2024-01-10T18:41:12;99606.66;;;-0.33;55.37
78717;BME280;68045;50.042;14.432;2024-01-10T18:45:13;99604.09;;;-0.23;55.42
78717;BME280;68045;50.042;14.432;2024-01-10T18:49:14;99601.34;;;-0.32;54.98
78717;BME280;68045;50.042;14.432;2024-01-10T18:53:15;99602.28;;;-0.33;54.84
78717;BME280;68045;50.042;14.432;2024-01-10T18:57:16;99599.19;;;-0.47;55.15
78717;BME280;68045;50.042;14.432;2024-01-10T19:01:18;99601.66;;;-0.46;55.53
78717;BME280;68045;50.042;14.432;2024-01-10T19:05:19;99596.41;;;-0.56;56.11
78717;BME280;68045;50.042;14.432;2024-01-10T19:09:21;99592.91;;;-0.66;56.32
78717;BME280;68045;50.042;14.432;2024-01-10T19:13:22;99595.50;;;-0.66;55.90
78717;BME280;68045;50.042;14.432;2024-01-10T19:17:22;99593.94;;;-0.57;56.04
78717;BME280;68045;50.042;14.432;2024-01-10T19:21:23;99596.00;;;-0.51;56.03
78717;BME280;68045;50.042;14.432;2024-01-10T19:25:24;99602.81;;;-0.71;56.68
78717;BME280;68045;50.042;14.432;2024-01-10T19:29:25;99597.63;;;-0.71;56.41
78717;BME280;68045;50.042;14.432;2024-01-10T19:33:26;99592.88;;;-0.87;56.30
78717;BME280;68045;50.042;14.432;2024-01-10T19:37:27;99597.09;;;-0.74;56.59
78717;BME280;68045;50.042;14.432;2024-01-10T19:41:30;99594.44;;;-0.84;56.74
78717;BME280;68045;50.042;14.432;2024-01-10T19:45:31;99596.25;;;-1.39;58.87
78717;BME280;68045;50.042;14.432;2024-01-10T19:49:32;99595.31;;;-1.49;59.16
78717;BME280;68045;50.042;14.432;2024-01-10T19:53:33;99590.94;;;-1.49;59.48
78717;BME280;68045;50.042;14.432;2024-01-10T19:57:34;99594.94;;;-1.45;60.22
78717;BME280;68045;50.042;14.432;2024-01-10T20:01:36;99590.16;;;-1.60;60.67
78717;BME280;68045;50.042;14.432;2024-01-10T20:05:36;99596.06;;;-1.81;61.61
78717;BME280;68045;50.042;14.432;2024-01-10T20:09:39;99585.44;;;-2.23;61.43
78717;BME280;68045;50.042;14.432;2024-01-10T20:13:40;99594.81;;;-2.44;62.75
78717;BME280;68045;50.042;14.432;2024-01-10T20:17:41;99604.38;;;-2.68;63.36
78717;BME280;68045;50.042;14.432;2024-01-10T20:21:42;99604.03;;;-2.64;63.23
78717;BME280;68045;50.042;14.432;2024-01-10T20:25:43;99607.31;;;-2.73;64.16
78717;BME280;68045;50.042;14.432;2024-01-10T20:29:44;99616.94;;;-2.99;64.34
78717;BME280;68045;50.042;14.432;2024-01-10T20:33:48;99601.16;;;-3.07;64.86
78717;BME280;68045;50.042;14.432;2024-01-10T20:37:49;99607.47;;;-3.11;65.64
78717;BME280;68045;50.042;14.432;2024-01-10T20:41:50;99602.91;;;-3.32;66.41
78717;BME280;68045;50.042;14.432;2024-01-10T20:45:52;99607.88;;;-3.28;65.64
78717;BME280;68045;50.042;14.432;2024-01-10T20:49:54;99601.38;;;-3.34;66.00
78717;BME280;68045;50.042;14.432;2024-01-10T20:53:56;99602.75;;;-3.41;66.73
78717;BME280;68045;50.042;14.432;2024-01-10T20:57:56;99604.28;;;-3.39;67.50
78717;BME280;68045;50.042;14.432;2024-01-10T21:01:57;99608.69;;;-3.52;67.64
78717;BME280;68045;50.042;14.432;2024-01-10T21:05:59;99611.75;;;-3.60;67.81
78717;BME280;68045;50.042;14.432;2024-01-10T21:10:00;99617.44;;;-3.54;67.96